BLQ weather

Bologna Guglielmo Marconi Airport
Bologna, Emilia-Romagna, Italy

Public forecast

Using degrees Celsius for public forecast. Weather courtesy of forecast.io.

METAR (pilot weather report)

Retrieved 2019/04/20 09:20 UTC (30 minutes ago):

LIPE 200920Z VRB03KT CAVOK 18/07 Q1027

TAF (pilot weather forecast)

Retrieved 2019/04/20 06:00 UTC (4 hours ago):

TAF LIPE 200500Z 2006/2106 VRB05KT CAVOK